sensor_id;sensor_type;location;lat;lon;timestamp;temperature;humidity
23301;DHT22;11819;51.394;12.340;2023-07-24T00:01:19;21.80;74.60
23301;DHT22;11819;51.394;12.340;2023-07-24T00:03:46;21.80;74.80
23301;DHT22;11819;51.394;12.340;2023-07-24T00:06:11;21.70;75.00
23301;DHT22;11819;51.394;12.340;2023-07-24T00:08:38;21.70;75.20
23301;DHT22;11819;51.394;12.340;2023-07-24T00:11:10;21.70;75.30
23301;DHT22;11819;51.394;12.340;2023-07-24T00:13:35;21.60;75.40
23301;DHT22;11819;51.394;12.340;2023-07-24T00:16:06;21.70;75.50
23301;DHT22;11819;51.394;12.340;2023-07-24T00:18:33;21.60;75.50
23301;DHT22;11819;51.394;12.340;2023-07-24T00:20:58;21.60;75.50
23301;DHT22;11819;51.394;12.340;2023-07-24T00:23:24;21.60;75.60
23301;DHT22;11819;51.394;12.340;2023-07-24T00:25:49;21.60;75.60
23301;DHT22;11819;51.394;12.340;2023-07-24T00:28:15;21.60;75.70
23301;DHT22;11819;51.394;12.340;2023-07-24T00:30:42;21.60;75.80
23301;DHT22;11819;51.394;12.340;2023-07-24T00:33:08;21.60;75.80
23301;DHT22;11819;51.394;12.340;2023-07-24T00:35:33;21.50;75.90
23301;DHT22;11819;51.394;12.340;2023-07-24T00:37:59;21.50;76.00
23301;DHT22;11819;51.394;12.340;2023-07-24T00:40:25;21.50;76.20
23301;DHT22;11819;51.394;12.340;2023-07-24T00:42:51;21.50;76.30
23301;DHT22;11819;51.394;12.340;2023-07-24T00:45:16;21.50;76.40
23301;DHT22;11819;51.394;12.340;2023-07-24T00:47:45;21.50;76.40
23301;DHT22;11819;51.394;12.340;2023-07-24T00:50:11;21.50;76.50
23301;DHT22;11819;51.394;12.340;2023-07-24T00:52:40;21.50;76.50
23301;DHT22;11819;51.394;12.340;2023-07-24T00:55:07;21.40;76.50
23301;DHT22;11819;51.394;12.340;2023-07-24T00:57:34;21.40;76.50
23301;DHT22;11819;51.394;12.340;2023-07-24T01:00:00;21.40;76.60
23301;DHT22;11819;51.394;12.340;2023-07-24T01:02:26;21.40;76.60
23301;DHT22;11819;51.394;12.340;2023-07-24T01:04:52;21.40;76.70
23301;DHT22;11819;51.394;12.340;2023-07-24T01:07:21;21.40;76.60
23301;DHT22;11819;51.394;12.340;2023-07-24T01:09:47;21.40;76.40
23301;DHT22;11819;51.394;12.340;2023-07-24T01:12:20;21.40;76.40
23301;DHT22;11819;51.394;12.340;2023-07-24T01:17:30;21.40;76.70
23301;DHT22;11819;51.394;12.340;2023-07-24T01:19:59;21.40;76.80
23301;DHT22;11819;51.394;12.340;2023-07-24T01:25:23;21.30;77.00
23301;DHT22;11819;51.394;12.340;2023-07-24T01:27:53;21.30;77.00
23301;DHT22;11819;51.394;12.340;2023-07-24T01:30:19;21.40;77.20
23301;DHT22;11819;51.394;12.340;2023-07-24T01:32:46;21.40;77.30
23301;DHT22;11819;51.394;12.340;2023-07-24T01:35:12;21.40;77.20
23301;DHT22;11819;51.394;12.340;2023-07-24T01:37:38;21.40;77.30
23301;DHT22;11819;51.394;12.340;2023-07-24T01:40:10;21.30;77.40
23301;DHT22;11819;51.394;12.340;2023-07-24T01:42:36;21.30;77.50
23301;DHT22;11819;51.394;12.340;2023-07-24T01:45:03;21.30;77.70
23301;DHT22;11819;51.394;12.340;2023-07-24T01:47:29;21.30;77.70
23301;DHT22;11819;51.394;12.340;2023-07-24T01:49:56;21.30;77.90
23301;DHT22;11819;51.394;12.340;2023-07-24T01:52:22;21.20;77.90
23301;DHT22;11819;51.394;12.340;2023-07-24T01:54:49;21.20;78.10
23301;DHT22;11819;51.394;12.340;2023-07-24T01:57:15;21.20;78.20
23301;DHT22;11819;51.394;12.340;2023-07-24T01:59:40;21.20;78.20
23301;DHT22;11819;51.394;12.340;2023-07-24T02:02:06;21.20;78.30
23301;DHT22;11819;51.394;12.340;2023-07-24T02:04:32;21.20;78.30
23301;DHT22;11819;51.394;12.340;2023-07-24T02:06:57;21.20;78.40
23301;DHT22;11819;51.394;12.340;2023-07-24T02:09:24;21.20;78.30
23301;DHT22;11819;51.394;12.340;2023-07-24T02:11:50;21.20;78.40
23301;DHT22;11819;51.394;12.340;2023-07-24T02:14:18;21.20;78.40
23301;DHT22;11819;51.394;12.340;2023-07-24T02:16:44;21.20;78.50
23301;DHT22;11819;51.394;12.340;2023-07-24T02:19:09;21.20;78.50
23301;DHT22;11819;51.394;12.340;2023-07-24T02:21:35;21.20;78.60
23301;DHT22;11819;51.394;12.340;2023-07-24T02:24:00;21.20;79.00
23301;DHT22;11819;51.394;12.340;2023-07-24T02:26:26;21.20;79.30
23301;DHT22;11819;51.394;12.340;2023-07-24T02:28:52;21.20;79.70
23301;DHT22;11819;51.394;12.340;2023-07-24T02:31:20;21.10;80.10
23301;DHT22;11819;51.394;12.340;2023-07-24T02:33:46;21.00;80.30
23301;DHT22;11819;51.394;12.340;2023-07-24T02:36:12;21.00;80.50
23301;DHT22;11819;51.394;12.340;2023-07-24T02:38:39;21.00;80.70
23301;DHT22;11819;51.394;12.340;2023-07-24T02:41:06;21.00;80.60
23301;DHT22;11819;51.394;12.340;2023-07-24T02:43:32;21.00;80.90
23301;DHT22;11819;51.394;12.340;2023-07-24T02:46:03;20.90;80.80
23301;DHT22;11819;51.394;12.340;2023-07-24T02:48:30;20.90;81.00
23301;DHT22;11819;51.394;12.340;2023-07-24T02:50:56;20.90;81.40
23301;DHT22;11819;51.394;12.340;2023-07-24T02:53:22;20.90;81.70
23301;DHT22;11819;51.394;12.340;2023-07-24T02:55:48;20.80;82.00
23301;DHT22;11819;51.394;12.340;2023-07-24T02:58:14;20.80;82.20
23301;DHT22;11819;51.394;12.340;2023-07-24T03:00:40;20.80;82.40
23301;DHT22;11819;51.394;12.340;2023-07-24T03:03:06;20.70;82.60
23301;DHT22;11819;51.394;12.340;2023-07-24T03:05:35;20.70;82.70
23301;DHT22;11819;51.394;12.340;2023-07-24T03:08:00;20.60;82.60
23301;DHT22;11819;51.394;12.340;2023-07-24T03:10:26;20.60;82.40
23301;DHT22;11819;51.394;12.340;2023-07-24T03:12:52;20.60;82.40
23301;DHT22;11819;51.394;12.340;2023-07-24T03:15:19;20.60;82.00
23301;DHT22;11819;51.394;12.340;2023-07-24T03:17:44;20.60;81.60
23301;DHT22;11819;51.394;12.340;2023-07-24T03:20:19;20.60;81.00
23301;DHT22;11819;51.394;12.340;2023-07-24T03:22:45;20.60;81.20
23301;DHT22;11819;51.394;12.340;2023-07-24T03:25:11;20.60;81.20
23301;DHT22;11819;51.394;12.340;2023-07-24T03:27:36;20.60;81.60
23301;DHT22;11819;51.394;12.340;2023-07-24T03:30:03;20.60;81.80
23301;DHT22;11819;51.394;12.340;2023-07-24T03:32:29;20.60;81.60
23301;DHT22;11819;51.394;12.340;2023-07-24T03:34:55;20.60;80.40
23301;DHT22;11819;51.394;12.340;2023-07-24T03:37:21;20.60;79.90
23301;DHT22;11819;51.394;12.340;2023-07-24T03:39:46;20.60;79.00
23301;DHT22;11819;51.394;12.340;2023-07-24T03:42:14;20.60;78.60
23301;DHT22;11819;51.394;12.340;2023-07-24T03:44:49;20.60;78.50
23301;DHT22;11819;51.394;12.340;2023-07-24T03:47:16;20.60;78.30
23301;DHT22;11819;51.394;12.340;2023-07-24T03:49:42;20.60;78.30
23301;DHT22;11819;51.394;12.340;2023-07-24T03:52:07;20.60;78.20
23301;DHT22;11819;51.394;12.340;2023-07-24T03:54:33;20.60;78.20
23301;DHT22;11819;51.394;12.340;2023-07-24T03:56:58;20.60;78.10
23301;DHT22;11819;51.394;12.340;2023-07-24T03:59:24;20.70;77.90
23301;DHT22;11819;51.394;12.340;2023-07-24T04:01:50;20.70;77.70
23301;DHT22;11819;51.394;12.340;2023-07-24T04:04:16;20.70;77.50
23301;DHT22;11819;51.394;12.340;2023-07-24T04:06:41;20.60;77.40
23301;DHT22;11819;51.394;12.340;2023-07-24T04:09:07;20.60;77.50
23301;DHT22;11819;51.394;12.340;2023-07-24T04:11:33;20.70;77.40
23301;DHT22;11819;51.394;12.340;2023-07-24T04:13:58;20.70;77.30
23301;DHT22;11819;51.394;12.340;2023-07-24T04:16:24;20.70;77.30
23301;DHT22;11819;51.394;12.340;2023-07-24T04:18:50;20.70;77.10
23301;DHT22;11819;51.394;12.340;2023-07-24T04:21:15;20.70;77.00
23301;DHT22;11819;51.394;12.340;2023-07-24T04:23:41;20.80;76.90
23301;DHT22;11819;51.394;12.340;2023-07-24T04:26:08;20.80;76.70
23301;DHT22;11819;51.394;12.340;2023-07-24T04:28:33;20.80;76.50
23301;DHT22;11819;51.394;12.340;2023-07-24T04:31:02;20.80;76.40
23301;DHT22;11819;51.394;12.340;2023-07-24T04:33:27;20.90;76.40
23301;DHT22;11819;51.394;12.340;2023-07-24T04:35:56;20.90;76.50
23301;DHT22;11819;51.394;12.340;2023-07-24T04:38:22;20.90;76.50
23301;DHT22;11819;51.394;12.340;2023-07-24T04:40:47;20.90;76.60
23301;DHT22;11819;51.394;12.340;2023-07-24T04:43:13;20.90;76.40
23301;DHT22;11819;51.394;12.340;2023-07-24T04:45:39;20.90;76.40
23301;DHT22;11819;51.394;12.340;2023-07-24T04:48:05;20.90;76.40
23301;DHT22;11819;51.394;12.340;2023-07-24T04:50:30;20.90;76.20
23301;DHT22;11819;51.394;12.340;2023-07-24T04:52:56;21.00;76.40
23301;DHT22;11819;51.394;12.340;2023-07-24T04:55:22;21.00;76.20
23301;DHT22;11819;51.394;12.340;2023-07-24T04:57:48;21.00;76.10
23301;DHT22;11819;51.394;12.340;2023-07-24T05:00:14;21.00;76.10
23301;DHT22;11819;51.394;12.340;2023-07-24T05:02:40;21.10;76.10
23301;DHT22;11819;51.394;12.340;2023-07-24T05:05:06;21.10;76.00
23301;DHT22;11819;51.394;12.340;2023-07-24T05:07:33;21.10;75.90
23301;DHT22;11819;51.394;12.340;2023-07-24T05:09:59;21.10;75.90
23301;DHT22;11819;51.394;12.340;2023-07-24T05:12:25;21.10;75.70
23301;DHT22;11819;51.394;12.340;2023-07-24T05:14:52;21.10;75.70
23301;DHT22;11819;51.394;12.340;2023-07-24T05:17:18;21.20;75.50
23301;DHT22;11819;51.394;12.340;2023-07-24T05:19:44;21.20;75.20
23301;DHT22;11819;51.394;12.340;2023-07-24T05:22:10;21.20;75.30
23301;DHT22;11819;51.394;12.340;2023-07-24T05:24:38;21.30;75.20
23301;DHT22;11819;51.394;12.340;2023-07-24T05:27:05;21.30;75.00
23301;DHT22;11819;51.394;12.340;2023-07-24T05:29:32;21.30;74.40
23301;DHT22;11819;51.394;12.340;2023-07-24T05:31:58;21.30;74.40
23301;DHT22;11819;51.394;12.340;2023-07-24T05:34:24;21.40;74.60
23301;DHT22;11819;51.394;12.340;2023-07-24T05:36:50;21.30;74.70
23301;DHT22;11819;51.394;12.340;2023-07-24T05:39:16;21.40;74.70
23301;DHT22;11819;51.394;12.340;2023-07-24T05:41:41;21.40;74.70
23301;DHT22;11819;51.394;12.340;2023-07-24T05:44:07;21.40;75.00
23301;DHT22;11819;51.394;12.340;2023-07-24T05:46:33;21.50;75.10
23301;DHT22;11819;51.394;12.340;2023-07-24T05:48:58;21.50;74.90
23301;DHT22;11819;51.394;12.340;2023-07-24T05:51:27;21.50;74.90
23301;DHT22;11819;51.394;12.340;2023-07-24T05:53:53;21.60;74.50
23301;DHT22;11819;51.394;12.340;2023-07-24T05:56:18;21.60;74.10
23301;DHT22;11819;51.394;12.340;2023-07-24T05:58:44;21.70;74.10
23301;DHT22;11819;51.394;12.340;2023-07-24T06:01:10;21.80;73.00
23301;DHT22;11819;51.394;12.340;2023-07-24T06:03:36;21.80;72.90
23301;DHT22;11819;51.394;12.340;2023-07-24T06:06:03;21.80;73.30
23301;DHT22;11819;51.394;12.340;2023-07-24T06:08:29;21.80;72.80
23301;DHT22;11819;51.394;12.340;2023-07-24T06:10:54;21.80;72.70
23301;DHT22;11819;51.394;12.340;2023-07-24T06:13:20;21.80;72.70
23301;DHT22;11819;51.394;12.340;2023-07-24T06:15:49;21.80;72.60
23301;DHT22;11819;51.394;12.340;2023-07-24T06:18:16;21.90;72.90
23301;DHT22;11819;51.394;12.340;2023-07-24T06:20:42;21.90;73.00
23301;DHT22;11819;51.394;12.340;2023-07-24T06:23:07;22.00;72.70
23301;DHT22;11819;51.394;12.340;2023-07-24T06:25:33;22.00;72.50
23301;DHT22;11819;51.394;12.340;2023-07-24T06:27:59;22.10;71.50
23301;DHT22;11819;51.394;12.340;2023-07-24T06:30:25;22.10;71.50
23301;DHT22;11819;51.394;12.340;2023-07-24T06:32:51;22.20;71.50
23301;DHT22;11819;51.394;12.340;2023-07-24T06:35:17;22.30;71.00
23301;DHT22;11819;51.394;12.340;2023-07-24T06:37:42;22.40;69.30
23301;DHT22;11819;51.394;12.340;2023-07-24T06:40:10;22.50;69.20
23301;DHT22;11819;51.394;12.340;2023-07-24T06:42:35;22.60;69.00
23301;DHT22;11819;51.394;12.340;2023-07-24T06:45:01;22.60;69.20
23301;DHT22;11819;51.394;12.340;2023-07-24T06:47:27;22.70;68.60
23301;DHT22;11819;51.394;12.340;2023-07-24T06:49:53;22.80;67.70
23301;DHT22;11819;51.394;12.340;2023-07-24T06:52:20;22.90;67.30
23301;DHT22;11819;51.394;12.340;2023-07-24T06:54:46;22.90;66.90
23301;DHT22;11819;51.394;12.340;2023-07-24T06:57:11;23.00;66.80
23301;DHT22;11819;51.394;12.340;2023-07-24T06:59:37;23.00;66.70
23301;DHT22;11819;51.394;12.340;2023-07-24T07:02:05;23.10;66.40
23301;DHT22;11819;51.394;12.340;2023-07-24T07:04:31;23.20;66.10
23301;DHT22;11819;51.394;12.340;2023-07-24T07:06:56;23.30;65.50
23301;DHT22;11819;51.394;12.340;2023-07-24T07:09:23;23.40;65.30
23301;DHT22;11819;51.394;12.340;2023-07-24T07:11:49;23.50;64.60
23301;DHT22;11819;51.394;12.340;2023-07-24T07:14:15;23.50;64.60
23301;DHT22;11819;51.394;12.340;2023-07-24T07:16:42;23.60;64.10
23301;DHT22;11819;51.394;12.340;2023-07-24T07:19:07;23.60;63.90
23301;DHT22;11819;51.394;12.340;2023-07-24T07:21:36;23.60;64.30
23301;DHT22;11819;51.394;12.340;2023-07-24T07:24:01;23.60;65.10
23301;DHT22;11819;51.394;12.340;2023-07-24T07:26:28;23.60;64.10
23301;DHT22;11819;51.394;12.340;2023-07-24T07:28:55;23.60;64.00
23301;DHT22;11819;51.394;12.340;2023-07-24T07:31:21;23.60;63.90
23301;DHT22;11819;51.394;12.340;2023-07-24T07:33:46;23.60;63.90
23301;DHT22;11819;51.394;12.340;2023-07-24T07:36:13;23.60;64.20
23301;DHT22;11819;51.394;12.340;2023-07-24T07:38:39;23.70;64.40
23301;DHT22;11819;51.394;12.340;2023-07-24T07:41:06;23.80;63.80
23301;DHT22;11819;51.394;12.340;2023-07-24T07:43:32;23.90;63.80
23301;DHT22;11819;51.394;12.340;2023-07-24T07:45:57;24.00;63.10
23301;DHT22;11819;51.394;12.340;2023-07-24T07:48:24;24.00;63.30
23301;DHT22;11819;51.394;12.340;2023-07-24T07:50:51;24.10;62.60
23301;DHT22;11819;51.394;12.340;2023-07-24T07:53:17;24.10;62.90
23301;DHT22;11819;51.394;12.340;2023-07-24T07:55:42;24.10;63.20
23301;DHT22;11819;51.394;12.340;2023-07-24T07:58:08;24.20;62.50
23301;DHT22;11819;51.394;12.340;2023-07-24T08:00:34;24.20;62.20
23301;DHT22;11819;51.394;12.340;2023-07-24T08:03:00;24.20;62.20
23301;DHT22;11819;51.394;12.340;2023-07-24T08:05:25;24.20;62.20
23301;DHT22;11819;51.394;12.340;2023-07-24T08:07:51;24.30;62.10
23301;DHT22;11819;51.394;12.340;2023-07-24T08:10:17;24.30;61.30
23301;DHT22;11819;51.394;12.340;2023-07-24T08:12:43;24.40;60.70
23301;DHT22;11819;51.394;12.340;2023-07-24T08:15:09;24.40;60.90
23301;DHT22;11819;51.394;12.340;2023-07-24T08:17:35;24.40;60.80
23301;DHT22;11819;51.394;12.340;2023-07-24T08:20:01;24.40;60.10
23301;DHT22;11819;51.394;12.340;2023-07-24T08:22:26;24.40;60.50
23301;DHT22;11819;51.394;12.340;2023-07-24T08:24:52;24.40;61.20
23301;DHT22;11819;51.394;12.340;2023-07-24T08:27:18;24.40;60.90
23301;DHT22;11819;51.394;12.340;2023-07-24T08:29:43;24.50;60.40
23301;DHT22;11819;51.394;12.340;2023-07-24T08:32:09;24.50;59.80
23301;DHT22;11819;51.394;12.340;2023-07-24T08:34:35;24.60;60.00
23301;DHT22;11819;51.394;12.340;2023-07-24T08:37:01;24.60;59.60
23301;DHT22;11819;51.394;12.340;2023-07-24T08:39:26;24.60;59.90
23301;DHT22;11819;51.394;12.340;2023-07-24T08:41:52;24.60;59.60
23301;DHT22;11819;51.394;12.340;2023-07-24T08:44:18;24.70;59.40
23301;DHT22;11819;51.394;12.340;2023-07-24T08:46:44;24.70;59.40
23301;DHT22;11819;51.394;12.340;2023-07-24T08:49:14;24.60;59.20
23301;DHT22;11819;51.394;12.340;2023-07-24T08:51:44;24.60;59.50
23301;DHT22;11819;51.394;12.340;2023-07-24T08:54:11;24.70;59.60
23301;DHT22;11819;51.394;12.340;2023-07-24T08:56:37;24.70;59.90
23301;DHT22;11819;51.394;12.340;2023-07-24T08:59:03;24.80;59.90
23301;DHT22;11819;51.394;12.340;2023-07-24T09:01:29;24.90;59.50
23301;DHT22;11819;51.394;12.340;2023-07-24T09:03:56;25.00;59.10
23301;DHT22;11819;51.394;12.340;2023-07-24T09:06:23;25.20;58.70
23301;DHT22;11819;51.394;12.340;2023-07-24T09:08:48;25.30;58.50
23301;DHT22;11819;51.394;12.340;2023-07-24T09:11:14;25.30;58.60
23301;DHT22;11819;51.394;12.340;2023-07-24T09:13:43;25.40;57.90
23301;DHT22;11819;51.394;12.340;2023-07-24T09:16:20;25.50;58.10
23301;DHT22;11819;51.394;12.340;2023-07-24T09:18:46;25.50;58.00
23301;DHT22;11819;51.394;12.340;2023-07-24T09:21:12;25.60;58.10
23301;DHT22;11819;51.394;12.340;2023-07-24T09:23:38;25.60;57.50
23301;DHT22;11819;51.394;12.340;2023-07-24T09:26:09;25.60;58.00
23301;DHT22;11819;51.394;12.340;2023-07-24T09:28:35;25.60;57.70
23301;DHT22;11819;51.394;12.340;2023-07-24T09:31:01;25.60;58.70
23301;DHT22;11819;51.394;12.340;2023-07-24T09:33:40;25.60;57.70
23301;DHT22;11819;51.394;12.340;2023-07-24T09:36:08;25.70;57.90
23301;DHT22;11819;51.394;12.340;2023-07-24T09:38:34;25.70;57.50
23301;DHT22;11819;51.394;12.340;2023-07-24T09:41:02;25.70;57.80
23301;DHT22;11819;51.394;12.340;2023-07-24T09:43:32;25.80;57.70
23301;DHT22;11819;51.394;12.340;2023-07-24T09:45:58;25.90;57.50
23301;DHT22;11819;51.394;12.340;2023-07-24T09:48:25;26.10;56.80
23301;DHT22;11819;51.394;12.340;2023-07-24T09:50:56;26.10;56.80
23301;DHT22;11819;51.394;12.340;2023-07-24T09:56:09;26.10;56.70
23301;DHT22;11819;51.394;12.340;2023-07-24T09:58:37;26.20;57.00
23301;DHT22;11819;51.394;12.340;2023-07-24T10:01:07;26.30;56.90
23301;DHT22;11819;51.394;12.340;2023-07-24T10:03:43;26.30;57.10
23301;DHT22;11819;51.394;12.340;2023-07-24T10:06:11;26.40;57.10
23301;DHT22;11819;51.394;12.340;2023-07-24T10:08:37;26.40;56.90
23301;DHT22;11819;51.394;12.340;2023-07-24T10:11:03;26.50;56.90
23301;DHT22;11819;51.394;12.340;2023-07-24T10:13:29;26.50;56.90
23301;DHT22;11819;51.394;12.340;2023-07-24T10:15:56;26.50;56.30
23301;DHT22;11819;51.394;12.340;2023-07-24T10:18:27;26.50;56.20
23301;DHT22;11819;51.394;12.340;2023-07-24T10:21:06;26.60;56.40
23301;DHT22;11819;51.394;12.340;2023-07-24T10:23:34;26.60;56.50
23301;DHT22;11819;51.394;12.340;2023-07-24T10:26:04;26.70;56.10
23301;DHT22;11819;51.394;12.340;2023-07-24T10:28:33;26.70;56.30
23301;DHT22;11819;51.394;12.340;2023-07-24T10:31:00;26.70;56.10
23301;DHT22;11819;51.394;12.340;2023-07-24T10:33:30;26.80;56.50
23301;DHT22;11819;51.394;12.340;2023-07-24T10:36:07;26.80;57.00
23301;DHT22;11819;51.394;12.340;2023-07-24T10:38:37;26.90;57.10
23301;DHT22;11819;51.394;12.340;2023-07-24T10:41:04;27.00;56.00
23301;DHT22;11819;51.394;12.340;2023-07-24T10:43:44;27.10;56.40
23301;DHT22;11819;51.394;12.340;2023-07-24T10:46:10;27.10;56.10
23301;DHT22;11819;51.394;12.340;2023-07-24T10:48:36;27.10;55.90
23301;DHT22;11819;51.394;12.340;2023-07-24T10:51:07;27.10;56.10
23301;DHT22;11819;51.394;12.340;2023-07-24T10:53:35;27.10;56.20
23301;DHT22;11819;51.394;12.340;2023-07-24T10:56:02;27.10;56.50
23301;DHT22;11819;51.394;12.340;2023-07-24T10:58:29;27.10;56.20
23301;DHT22;11819;51.394;12.340;2023-07-24T11:00:55;27.10;56.40
23301;DHT22;11819;51.394;12.340;2023-07-24T11:03:21;27.20;56.30
23301;DHT22;11819;51.394;12.340;2023-07-24T11:05:47;27.20;55.80
23301;DHT22;11819;51.394;12.340;2023-07-24T11:08:15;27.10;55.90
23301;DHT22;11819;51.394;12.340;2023-07-24T11:10:48;27.10;56.00
23301;DHT22;11819;51.394;12.340;2023-07-24T11:13:14;27.00;56.40
23301;DHT22;11819;51.394;12.340;2023-07-24T11:15:40;27.00;56.30
23301;DHT22;11819;51.394;12.340;2023-07-24T11:18:06;27.00;56.80
23301;DHT22;11819;51.394;12.340;2023-07-24T11:23:14;27.00;57.40
23301;DHT22;11819;51.394;12.340;2023-07-24T11:25:40;27.00;57.70
23301;DHT22;11819;51.394;12.340;2023-07-24T11:28:07;26.90;57.10
23301;DHT22;11819;51.394;12.340;2023-07-24T11:30:34;26.90;57.50
23301;DHT22;11819;51.394;12.340;2023-07-24T11:33:02;26.90;57.20
23301;DHT22;11819;51.394;12.340;2023-07-24T11:35:28;26.90;57.10
23301;DHT22;11819;51.394;12.340;2023-07-24T11:37:53;26.90;57.40
23301;DHT22;11819;51.394;12.340;2023-07-24T11:40:19;27.00;57.30
23301;DHT22;11819;51.394;12.340;2023-07-24T11:42:49;27.00;57.20
23301;DHT22;11819;51.394;12.340;2023-07-24T11:45:15;27.10;57.20
23301;DHT22;11819;51.394;12.340;2023-07-24T11:47:48;27.00;57.40
23301;DHT22;11819;51.394;12.340;2023-07-24T11:50:15;27.20;57.80
23301;DHT22;11819;51.394;12.340;2023-07-24T11:55:15;27.40;57.10
23301;DHT22;11819;51.394;12.340;2023-07-24T11:57:42;27.50;56.80
23301;DHT22;11819;51.394;12.340;2023-07-24T12:00:21;27.60;56.40
23301;DHT22;11819;51.394;12.340;2023-07-24T12:02:47;27.60;56.30
23301;DHT22;11819;51.394;12.340;2023-07-24T12:05:14;27.70;56.60
23301;DHT22;11819;51.394;12.340;2023-07-24T12:07:41;27.70;56.30
23301;DHT22;11819;51.394;12.340;2023-07-24T12:10:07;27.70;56.50
23301;DHT22;11819;51.394;12.340;2023-07-24T12:12:42;27.70;56.40
23301;DHT22;11819;51.394;12.340;2023-07-24T12:15:08;27.60;56.10
23301;DHT22;11819;51.394;12.340;2023-07-24T12:17:35;27.50;56.50
23301;DHT22;11819;51.394;12.340;2023-07-24T12:20:01;27.40;57.50
23301;DHT22;11819;51.394;12.340;2023-07-24T12:22:28;27.30;56.70
23301;DHT22;11819;51.394;12.340;2023-07-24T12:24:53;27.30;56.80
23301;DHT22;11819;51.394;12.340;2023-07-24T12:27:19;27.40;56.80
23301;DHT22;11819;51.394;12.340;2023-07-24T12:29:44;27.40;57.10
23301;DHT22;11819;51.394;12.340;2023-07-24T12:32:10;27.50;57.30
23301;DHT22;11819;51.394;12.340;2023-07-24T12:34:35;27.50;56.20
23301;DHT22;11819;51.394;12.340;2023-07-24T12:37:01;27.60;56.60
23301;DHT22;11819;51.394;12.340;2023-07-24T12:39:27;27.60;57.00
23301;DHT22;11819;51.394;12.340;2023-07-24T12:41:52;27.50;56.80
23301;DHT22;11819;51.394;12.340;2023-07-24T12:44:18;27.50;56.80
23301;DHT22;11819;51.394;12.340;2023-07-24T12:46:44;27.50;56.50
23301;DHT22;11819;51.394;12.340;2023-07-24T12:49:09;27.40;56.50
23301;DHT22;11819;51.394;12.340;2023-07-24T12:51:35;27.30;56.20
23301;DHT22;11819;51.394;12.340;2023-07-24T12:54:01;27.20;56.20
23301;DHT22;11819;51.394;12.340;2023-07-24T12:56:27;27.20;56.60
23301;DHT22;11819;51.394;12.340;2023-07-24T12:58:53;27.10;57.00
23301;DHT22;11819;51.394;12.340;2023-07-24T13:01:18;27.00;56.70
23301;DHT22;11819;51.394;12.340;2023-07-24T13:03:44;27.00;56.90
23301;DHT22;11819;51.394;12.340;2023-07-24T13:06:09;26.90;57.00
23301;DHT22;11819;51.394;12.340;2023-07-24T13:08:35;26.90;57.10
23301;DHT22;11819;51.394;12.340;2023-07-24T13:11:01;26.90;57.30
23301;DHT22;11819;51.394;12.340;2023-07-24T13:13:26;26.90;57.20
23301;DHT22;11819;51.394;12.340;2023-07-24T13:15:52;26.90;57.60
23301;DHT22;11819;51.394;12.340;2023-07-24T13:18:18;26.80;57.80
23301;DHT22;11819;51.394;12.340;2023-07-24T13:20:45;26.80;58.00
23301;DHT22;11819;51.394;12.340;2023-07-24T13:23:12;26.70;58.70
23301;DHT22;11819;51.394;12.340;2023-07-24T13:25:38;26.70;59.30
23301;DHT22;11819;51.394;12.340;2023-07-24T13:28:03;26.70;59.60
23301;DHT22;11819;51.394;12.340;2023-07-24T13:30:29;26.60;59.10
23301;DHT22;11819;51.394;12.340;2023-07-24T13:32:55;26.60;59.00
23301;DHT22;11819;51.394;12.340;2023-07-24T13:35:20;26.70;58.70
23301;DHT22;11819;51.394;12.340;2023-07-24T13:37:46;26.70;58.30
23301;DHT22;11819;51.394;12.340;2023-07-24T13:40:12;26.70;58.20
23301;DHT22;11819;51.394;12.340;2023-07-24T13:42:37;26.70;58.00
23301;DHT22;11819;51.394;12.340;2023-07-24T13:45:03;26.70;58.00
23301;DHT22;11819;51.394;12.340;2023-07-24T13:47:29;26.70;57.70
23301;DHT22;11819;51.394;12.340;2023-07-24T13:49:54;26.80;57.50
23301;DHT22;11819;51.394;12.340;2023-07-24T13:52:20;26.70;57.70
23301;DHT22;11819;51.394;12.340;2023-07-24T13:54:46;26.80;57.70
23301;DHT22;11819;51.394;12.340;2023-07-24T13:57:13;27.00;57.80
23301;DHT22;11819;51.394;12.340;2023-07-24T13:59:39;27.20;57.60
23301;DHT22;11819;51.394;12.340;2023-07-24T14:02:05;27.30;56.80
23301;DHT22;11819;51.394;12.340;2023-07-24T14:04:31;27.40;56.80
23301;DHT22;11819;51.394;12.340;2023-07-24T14:06:57;27.50;57.00
23301;DHT22;11819;51.394;12.340;2023-07-24T14:09:22;27.50;55.60
23301;DHT22;11819;51.394;12.340;2023-07-24T14:11:48;27.50;55.80
23301;DHT22;11819;51.394;12.340;2023-07-24T14:14:17;27.50;55.20
23301;DHT22;11819;51.394;12.340;2023-07-24T14:16:43;27.50;54.80
23301;DHT22;11819;51.394;12.340;2023-07-24T14:19:09;27.50;54.50
23301;DHT22;11819;51.394;12.340;2023-07-24T14:21:34;27.40;54.70
23301;DHT22;11819;51.394;12.340;2023-07-24T14:24:00;27.40;55.90
23301;DHT22;11819;51.394;12.340;2023-07-24T14:26:26;27.20;56.60
23301;DHT22;11819;51.394;12.340;2023-07-24T14:28:52;27.20;57.10
23301;DHT22;11819;51.394;12.340;2023-07-24T14:31:17;27.20;57.30
23301;DHT22;11819;51.394;12.340;2023-07-24T14:33:43;27.20;57.30
23301;DHT22;11819;51.394;12.340;2023-07-24T14:36:09;27.30;57.10
23301;DHT22;11819;51.394;12.340;2023-07-24T14:38:34;27.30;57.00
23301;DHT22;11819;51.394;12.340;2023-07-24T14:41:00;27.40;57.10
23301;DHT22;11819;51.394;12.340;2023-07-24T14:43:25;27.60;56.80
23301;DHT22;11819;51.394;12.340;2023-07-24T14:45:51;28.00;56.60
23301;DHT22;11819;51.394;12.340;2023-07-24T14:48:17;28.50;55.40
23301;DHT22;11819;51.394;12.340;2023-07-24T14:50:43;29.00;54.30
23301;DHT22;11819;51.394;12.340;2023-07-24T14:53:08;29.30;53.90
23301;DHT22;11819;51.394;12.340;2023-07-24T14:55:34;29.50;53.00
23301;DHT22;11819;51.394;12.340;2023-07-24T14:58:00;29.60;53.00
23301;DHT22;11819;51.394;12.340;2023-07-24T15:00:25;29.70;52.30
23301;DHT22;11819;51.394;12.340;2023-07-24T15:02:51;29.60;51.20
23301;DHT22;11819;51.394;12.340;2023-07-24T15:05:16;29.80;50.00
23301;DHT22;11819;51.394;12.340;2023-07-24T15:07:42;30.00;49.50
23301;DHT22;11819;51.394;12.340;2023-07-24T15:10:08;30.10;49.10
23301;DHT22;11819;51.394;12.340;2023-07-24T15:12:33;30.00;49.20
23301;DHT22;11819;51.394;12.340;2023-07-24T15:14:59;29.60;49.90
23301;DHT22;11819;51.394;12.340;2023-07-24T15:17:25;29.20;50.70
23301;DHT22;11819;51.394;12.340;2023-07-24T15:19:50;28.90;51.00
23301;DHT22;11819;51.394;12.340;2023-07-24T15:22:16;28.70;51.80
23301;DHT22;11819;51.394;12.340;2023-07-24T15:24:41;28.50;52.40